Time;durP1;ratioP1;P1;durP2;ratioP2;P2;SDS_P1;SDS_P2;PMS_P1;PMS_P2;Temp;Humidity;BMP_temperature;BMP_pressure;BME280_temperature;BME280_humidity;BME280_pressure;Samples;Min_cycle;Max_cycle;Signal;HPM_P1;HPM_P2
2021/10/10 00:01:06;;;;;;;69.60;38.63;;;;;;;;;;5089244;28;20172;-71
2021/10/10 00:03:31;;;;;;;67.37;39.07;;;;;;;;;;5091409;28;20517;-72
2021/10/10 00:05:56;;;;;;;73.17;40.07;;;;;;;;;;5089423;28;20175;-71
2021/10/10 00:08:21;;;;;;;69.10;37.63;;;;;;;;;;5091278;28;20187;-72
2021/10/10 00:10:47;;;;;;;76.40;41.97;;;;;;;;;;5089087;28;20168;-71
2021/10/10 00:13:12;;;;;;;79.00;40.97;;;;;;;;;;5091889;28;20180;-71
2021/10/10 00:15:37;;;;;;;63.33;36.70;;;;;;;;;;5089225;28;20196;-71
2021/10/10 00:18:02;;;;;;;70.53;39.63;;;;;;;;;;5091358;28;20196;-71
2021/10/10 00:20:28;;;;;;;67.57;40.47;;;;;;;;;;5089758;28;20184;-72
2021/10/10 00:22:53;;;;;;;71.93;41.60;;;;;;;;;;5091556;28;20263;-72
2021/10/10 00:25:18;;;;;;;74.10;41.97;;;;;;;;;;5088621;28;20259;-71
2021/10/10 00:27:43;;;;;;;78.90;42.00;;;;;;;;;;5091209;28;20171;-71
2021/10/10 00:30:09;;;;;;;74.43;40.23;;;;;;;;;;5085030;28;20180;-71
2021/10/10 00:32:34;;;;;;;79.50;42.37;;;;;;;;;;5092902;28;20181;-71
2021/10/10 00:35:00;;;;;;;68.77;38.03;;;;;;;;;;5088122;28;20168;-71
2021/10/10 00:37:25;;;;;;;68.67;38.27;;;;;;;;;;5091398;28;20564;-72
2021/10/10 00:39:50;;;;;;;72.47;40.80;;;;;;;;;;5083949;28;20672;-70
2021/10/10 00:42:15;;;;;;;73.57;42.03;;;;;;;;;;5079826;28;20697;-71
2021/10/10 00:44:43;;;;;;;69.50;38.70;;;;;;;;;;5088148;28;20649;-71
2021/10/10 00:47:09;;;;;;;76.17;39.80;;;;;;;;;;5085984;28;20186;-71
2021/10/10 00:49:34;;;;;;;76.77;40.47;;;;;;;;;;5078639;28;20208;-70
2021/10/10 00:52:00;;;;;;;59.77;35.77;;;;;;;;;;5080064;28;20176;-72
2021/10/10 00:54:27;;;;;;;65.50;38.13;;;;;;;;;;5086746;28;20181;-72
2021/10/10 00:56:53;;;;;;;65.83;38.50;;;;;;;;;;5084351;28;20693;-70
2021/10/10 00:59:22;;;;;;;63.93;37.43;;;;;;;;;;5086949;28;20274;-72
2021/10/10 01:01:50;;;;;;;59.87;34.33;;;;;;;;;;5080879;28;20172;-72
2021/10/10 01:04:16;;;;;;;59.50;35.07;;;;;;;;;;5091044;28;20204;-70
2021/10/10 01:06:41;;;;;;;63.67;37.90;;;;;;;;;;5091560;28;20200;-72
2021/10/10 01:09:06;;;;;;;62.77;35.23;;;;;;;;;;5085950;28;20192;-72
2021/10/10 01:11:31;;;;;;;62.90;35.83;;;;;;;;;;5094192;28;20191;-72
2021/10/10 01:13:57;;;;;;;61.10;33.60;;;;;;;;;;5091305;28;20655;-72
2021/10/10 01:16:23;;;;;;;65.80;36.77;;;;;;;;;;5095838;28;20394;-72
2021/10/10 01:18:48;;;;;;;71.90;40.90;;;;;;;;;;5091902;28;20227;-71
2021/10/10 01:21:13;;;;;;;70.30;38.17;;;;;;;;;;5094322;28;20172;-71
2021/10/10 01:23:38;;;;;;;66.47;36.67;;;;;;;;;;5088441;28;20272;-71
2021/10/10 01:26:03;;;;;;;68.77;37.23;;;;;;;;;;5091312;28;20548;-72
2021/10/10 01:28:29;;;;;;;70.83;36.03;;;;;;;;;;5085045;28;20220;-72
2021/10/10 01:30:54;;;;;;;63.20;34.53;;;;;;;;;;5084146;28;20214;-71
2021/10/10 01:33:19;;;;;;;63.77;35.53;;;;;;;;;;5086243;28;20500;-71
2021/10/10 01:35:44;;;;;;;53.67;30.87;;;;;;;;;;5088507;28;20200;-72
2021/10/10 01:38:14;;;;;;;60.43;36.47;;;;;;;;;;5094247;28;20616;-70
2021/10/10 01:40:43;;;;;;;64.30;37.13;;;;;;;;;;5093857;28;20672;-70
2021/10/10 01:43:08;;;;;;;73.60;38.97;;;;;;;;;;5093621;28;20180;-70
2021/10/10 01:45:33;;;;;;;70.13;36.87;;;;;;;;;;5093977;28;20214;-70
2021/10/10 01:47:58;;;;;;;57.17;33.50;;;;;;;;;;5093882;28;20735;-70
2021/10/10 01:50:24;;;;;;;64.83;36.33;;;;;;;;;;5093505;28;20216;-71
2021/10/10 01:52:50;;;;;;;69.60;38.07;;;;;;;;;;5084131;28;20582;-70
2021/10/10 01:55:15;;;;;;;71.17;36.93;;;;;;;;;;5091899;28;20228;-72
2021/10/10 01:57:41;;;;;;;62.90;36.40;;;;;;;;;;5088084;28;20500;-71
2021/10/10 02:00:07;;;;;;;72.80;37.17;;;;;;;;;;5093649;28;20172;-71
2021/10/10 02:02:32;;;;;;;64.20;36.70;;;;;;;;;;5091907;28;20183;-73
2021/10/10 02:04:57;;;;;;;71.30;38.67;;;;;;;;;;5093508;28;20194;-70
2021/10/10 02:07:22;;;;;;;66.03;37.23;;;;;;;;;;5093714;28;20558;-70
2021/10/10 02:09:48;;;;;;;66.40;36.53;;;;;;;;;;5093236;28;20312;-70
2021/10/10 02:12:13;;;;;;;68.13;35.50;;;;;;;;;;5091492;28;20283;-70
2021/10/10 02:14:38;;;;;;;64.73;35.77;;;;;;;;;;5093530;28;20217;-72
2021/10/10 02:17:04;;;;;;;58.87;34.97;;;;;;;;;;5089118;28;20649;-71
2021/10/10 02:19:29;;;;;;;66.93;35.67;;;;;;;;;;5088957;28;20200;-71
2021/10/10 02:21:55;;;;;;;63.90;34.70;;;;;;;;;;5091622;28;20259;-71
2021/10/10 02:24:20;;;;;;;66.37;36.10;;;;;;;;;;5093344;28;20549;-71
2021/10/10 02:26:45;;;;;;;65.50;34.73;;;;;;;;;;5089394;28;20180;-71
2021/10/10 02:29:10;;;;;;;67.63;36.33;;;;;;;;;;5081696;28;20199;-71
2021/10/10 02:31:35;;;;;;;64.40;35.00;;;;;;;;;;5093080;28;20181;-71
2021/10/10 02:34:00;;;;;;;69.43;35.77;;;;;;;;;;5088737;28;20183;-71
2021/10/10 02:36:26;;;;;;;68.27;35.67;;;;;;;;;;5092803;28;20184;-71
2021/10/10 02:38:51;;;;;;;62.97;35.20;;;;;;;;;;5089901;28;20204;-71
2021/10/10 02:41:16;;;;;;;73.23;36.07;;;;;;;;;;5089323;28;20173;-71
2021/10/10 02:43:41;;;;;;;70.57;36.13;;;;;;;;;;5085157;28;20600;-71
2021/10/10 02:46:06;;;;;;;66.17;37.17;;;;;;;;;;5082610;28;20177;-71
2021/10/10 02:48:31;;;;;;;69.67;36.23;;;;;;;;;;5089583;28;20203;-72
2021/10/10 02:50:57;;;;;;;59.63;33.83;;;;;;;;;;5083749;28;20666;-71
2021/10/10 02:53:22;;;;;;;67.83;36.10;;;;;;;;;;5074001;28;20172;-71
2021/10/10 02:55:47;;;;;;;63.07;36.00;;;;;;;;;;5083329;28;20218;-71
2021/10/10 02:58:12;;;;;;;62.97;34.30;;;;;;;;;;5087521;28;20283;-71
2021/10/10 03:00:37;;;;;;;60.23;33.37;;;;;;;;;;5084209;28;20566;-71
2021/10/10 03:03:02;;;;;;;67.33;34.03;;;;;;;;;;5083957;28;20191;-71
2021/10/10 03:05:28;;;;;;;59.90;33.77;;;;;;;;;;5086792;28;20231;-71
2021/10/10 03:07:53;;;;;;;66.37;33.47;;;;;;;;;;5085715;28;20611;-71
2021/10/10 03:10:18;;;;;;;58.77;35.00;;;;;;;;;;5089250;28;20177;-71
2021/10/10 03:12:43;;;;;;;61.33;32.70;;;;;;;;;;5084536;28;20169;-71
2021/10/10 03:15:08;;;;;;;58.70;34.13;;;;;;;;;;5083636;28;20179;-71
2021/10/10 03:17:34;;;;;;;57.93;32.23;;;;;;;;;;5082171;28;20244;-71
2021/10/10 03:19:59;;;;;;;57.47;31.23;;;;;;;;;;5085343;28;20775;-71
2021/10/10 03:22:24;;;;;;;62.83;34.73;;;;;;;;;;5079748;28;20173;-71
2021/10/10 03:24:49;;;;;;;63.43;34.53;;;;;;;;;;5083473;28;20181;-71
2021/10/10 03:27:15;;;;;;;65.00;34.83;;;;;;;;;;5087161;28;20176;-71
2021/10/10 03:29:40;;;;;;;66.43;36.00;;;;;;;;;;5090635;28;20554;-70
2021/10/10 03:32:05;;;;;;;64.77;34.73;;;;;;;;;;5083336;28;20230;-70
2021/10/10 03:34:30;;;;;;;59.50;31.73;;;;;;;;;;5084333;28;20207;-71
2021/10/10 03:36:55;;;;;;;57.70;32.13;;;;;;;;;;5085480;28;20283;-71
2021/10/10 03:39:21;;;;;;;62.10;31.30;;;;;;;;;;5083293;28;20197;-71
2021/10/10 03:41:46;;;;;;;62.80;32.97;;;;;;;;;;5082003;28;20168;-71
2021/10/10 03:44:11;;;;;;;60.17;32.27;;;;;;;;;;5079854;28;20176;-71
2021/10/10 03:46:36;;;;;;;57.17;32.30;;;;;;;;;;5075589;28;20276;-71
2021/10/10 03:49:01;;;;;;;59.50;32.30;;;;;;;;;;5089292;28;20204;-71
2021/10/10 03:51:27;;;;;;;62.73;32.27;;;;;;;;;;5085615;28;20184;-71
2021/10/10 03:56:23;;;;;;;48.80;28.10;;;;;;;;;;5083023;28;20258;-72
2021/10/10 03:58:48;;;;;;;62.23;31.20;;;;;;;;;;5082376;28;20689;-71
2021/10/10 04:01:13;;;;;;;50.53;28.73;;;;;;;;;;5082676;28;20199;-70
2021/10/10 04:03:38;;;;;;;59.63;31.20;;;;;;;;;;5085260;28;20172;-72
2021/10/10 04:06:04;;;;;;;51.60;29.80;;;;;;;;;;5087206;28;20208;-70
2021/10/10 04:08:29;;;;;;;54.33;30.30;;;;;;;;;;5089540;28;20219;-70
2021/10/10 04:10:54;;;;;;;53.23;28.63;;;;;;;;;;5087096;28;20180;-70
2021/10/10 04:13:19;;;;;;;48.40;29.23;;;;;;;;;;5090070;28;20214;-70
2021/10/10 04:15:45;;;;;;;51.67;29.07;;;;;;;;;;5086066;28;20288;-71
2021/10/10 04:18:10;;;;;;;49.93;27.17;;;;;;;;;;5088577;28;20537;-70
2021/10/10 04:20:35;;;;;;;45.33;25.43;;;;;;;;;;5089201;28;20211;-70
2021/10/10 04:23:01;;;;;;;39.77;23.37;;;;;;;;;;5086833;28;20820;-70
2021/10/10 04:25:26;;;;;;;44.17;26.53;;;;;;;;;;5091245;28;20199;-70
2021/10/10 04:27:52;;;;;;;46.37;25.20;;;;;;;;;;5087551;28;20172;-70
2021/10/10 04:30:17;;;;;;;46.00;26.73;;;;;;;;;;5089324;28;20172;-72
2021/10/10 04:32:43;;;;;;;45.93;25.83;;;;;;;;;;5090932;28;20181;-72
2021/10/10 04:35:09;;;;;;;45.63;26.37;;;;;;;;;;5089717;28;20544;-72
2021/10/10 04:37:34;;;;;;;49.40;25.80;;;;;;;;;;5091044;28;20200;-72
2021/10/10 04:39:59;;;;;;;41.63;24.30;;;;;;;;;;5087928;28;20168;-70
2021/10/10 04:42:24;;;;;;;44.77;26.07;;;;;;;;;;5090155;28;20161;-72
2021/10/10 04:44:50;;;;;;;46.33;24.77;;;;;;;;;;5087132;28;20692;-71
2021/10/10 04:47:15;;;;;;;47.27;25.23;;;;;;;;;;5089999;28;20184;-72
2021/10/10 04:49:40;;;;;;;49.00;26.67;;;;;;;;;;5086132;28;20208;-71
2021/10/10 04:52:05;;;;;;;47.00;27.33;;;;;;;;;;5081748;28;20657;-71
2021/10/10 04:54:31;;;;;;;51.87;29.53;;;;;;;;;;5084017;28;20252;-71
2021/10/10 04:56:56;;;;;;;56.60;31.00;;;;;;;;;;5075176;28;20203;-72
2021/10/10 04:59:21;;;;;;;48.23;27.57;;;;;;;;;;5089280;28;20188;-70
2021/10/10 05:01:46;;;;;;;51.17;28.67;;;;;;;;;;5088834;28;20184;-71
2021/10/10 05:04:11;;;;;;;49.53;28.57;;;;;;;;;;5074268;28;20256;-71
2021/10/10 05:06:36;;;;;;;49.17;28.20;;;;;;;;;;5090500;28;20176;-71
2021/10/10 05:09:02;;;;;;;55.10;28.03;;;;;;;;;;5087111;28;20311;-71
2021/10/10 05:11:27;;;;;;;53.77;30.30;;;;;;;;;;5090165;28;20172;-71
2021/10/10 05:13:52;;;;;;;47.50;27.27;;;;;;;;;;5086971;28;20729;-72
2021/10/10 05:16:17;;;;;;;51.30;27.13;;;;;;;;;;5090612;28;20196;-72
2021/10/10 05:18:42;;;;;;;49.03;28.13;;;;;;;;;;5089055;28;20184;-71
2021/10/10 05:21:08;;;;;;;50.17;28.03;;;;;;;;;;5087950;28;20263;-72
2021/10/10 05:23:33;;;;;;;51.43;28.83;;;;;;;;;;5088194;28;20328;-72
2021/10/10 05:26:01;;;;;;;47.77;27.73;;;;;;;;;;5083876;28;20172;-71
2021/10/10 05:28:26;;;;;;;49.97;26.30;;;;;;;;;;5077313;28;20203;-72
2021/10/10 05:30:51;;;;;;;46.33;26.77;;;;;;;;;;5083874;28;20756;-71
2021/10/10 05:33:17;;;;;;;45.80;26.33;;;;;;;;;;5078267;28;20268;-71
2021/10/10 05:35:42;;;;;;;45.93;26.30;;;;;;;;;;5087937;28;20246;-71
2021/10/10 05:38:07;;;;;;;43.33;25.50;;;;;;;;;;5075897;28;20673;-71
2021/10/10 05:40:33;;;;;;;43.67;26.33;;;;;;;;;;5082173;28;20189;-71
2021/10/10 05:42:59;;;;;;;42.77;25.93;;;;;;;;;;5086219;28;20234;-71
2021/10/10 05:45:24;;;;;;;48.27;27.17;;;;;;;;;;5087857;28;20180;-71
2021/10/10 05:47:49;;;;;;;45.70;27.13;;;;;;;;;;5093865;28;20203;-72
2021/10/10 05:50:14;;;;;;;46.37;27.23;;;;;;;;;;5088486;28;20180;-72
2021/10/10 05:52:39;;;;;;;48.23;27.67;;;;;;;;;;5077720;28;20191;-72
2021/10/10 05:55:08;;;;;;;47.73;27.77;;;;;;;;;;5077426;28;20171;-70
2021/10/10 05:57:43;;;;;;;46.90;25.40;;;;;;;;;;5085691;28;20676;-70
2021/10/10 06:00:09;;;;;;;40.03;24.67;;;;;;;;;;5085117;28;20172;-70
2021/10/10 06:02:34;;;;;;;47.30;26.50;;;;;;;;;;5084993;28;20169;-70
2021/10/10 06:05:00;;;;;;;39.37;24.93;;;;;;;;;;5089444;28;20665;-70
2021/10/10 06:07:25;;;;;;;37.53;23.57;;;;;;;;;;5088237;28;20523;-71
2021/10/10 06:09:50;;;;;;;34.33;22.83;;;;;;;;;;5088829;28;20279;-70
2021/10/10 06:12:15;;;;;;;36.30;23.77;;;;;;;;;;5090800;28;20191;-70
2021/10/10 06:14:40;;;;;;;35.40;21.47;;;;;;;;;;5088067;28;20184;-72
2021/10/10 06:17:06;;;;;;;33.93;23.43;;;;;;;;;;5092947;28;20245;-72
2021/10/10 06:19:32;;;;;;;40.33;25.53;;;;;;;;;;5089561;28;20318;-72
2021/10/10 06:21:57;;;;;;;37.93;22.73;;;;;;;;;;5092259;28;20168;-70
2021/10/10 06:24:22;;;;;;;36.87;23.93;;;;;;;;;;5086992;28;20230;-70
2021/10/10 06:26:47;;;;;;;39.37;24.67;;;;;;;;;;5093549;28;20207;-72
2021/10/10 06:29:13;;;;;;;34.73;22.70;;;;;;;;;;5093117;28;20253;-70
2021/10/10 06:31:38;;;;;;;42.53;26.00;;;;;;;;;;5091702;28;20176;-72
2021/10/10 06:34:04;;;;;;;43.07;26.10;;;;;;;;;;5090600;28;20188;-71
2021/10/10 06:36:29;;;;;;;41.33;26.00;;;;;;;;;;5089148;28;20207;-72
2021/10/10 06:38:54;;;;;;;37.93;23.43;;;;;;;;;;5083296;28;20260;-72
2021/10/10 06:41:21;;;;;;;39.67;25.93;;;;;;;;;;5082158;28;20169;-72
2021/10/10 06:43:46;;;;;;;45.67;27.87;;;;;;;;;;5085256;28;20165;-72
2021/10/10 06:46:11;;;;;;;47.27;30.57;;;;;;;;;;5084341;28;20579;-71
2021/10/10 06:48:36;;;;;;;44.57;27.87;;;;;;;;;;5091250;28;20216;-71
2021/10/10 06:51:01;;;;;;;46.43;29.10;;;;;;;;;;5076426;28;20173;-71
2021/10/10 06:53:27;;;;;;;50.97;31.30;;;;;;;;;;5088468;28;20172;-72
2021/10/10 06:55:52;;;;;;;52.47;31.97;;;;;;;;;;5075798;28;20206;-71
2021/10/10 06:58:17;;;;;;;58.33;36.73;;;;;;;;;;5083531;28;20196;-71
2021/10/10 07:00:42;;;;;;;61.27;36.70;;;;;;;;;;5089510;28;20185;-71
2021/10/10 07:03:08;;;;;;;55.63;35.83;;;;;;;;;;5084771;28;20566;-71
2021/10/10 07:05:33;;;;;;;52.83;34.50;;;;;;;;;;5091025;28;20184;-71
2021/10/10 07:07:58;;;;;;;53.27;35.67;;;;;;;;;;5088425;28;20215;-71
2021/10/10 07:10:23;;;;;;;52.10;34.63;;;;;;;;;;5087665;28;20613;-71
2021/10/10 07:12:48;;;;;;;49.40;33.87;;;;;;;;;;5078533;28;20168;-71
2021/10/10 07:15:14;;;;;;;46.63;31.30;;;;;;;;;;5088127;28;20238;-71
2021/10/10 07:17:39;;;;;;;43.53;31.63;;;;;;;;;;5080394;28;20204;-71
2021/10/10 07:25:05;;;;;;;42.70;31.03;;;;;;;;;;5083087;28;20191;-73
2021/10/10 07:27:31;;;;;;;40.80;30.90;;;;;;;;;;5085835;28;20263;-72
2021/10/10 07:29:57;;;;;;;41.40;28.97;;;;;;;;;;5106190;28;20262;-71
2021/10/10 07:32:22;;;;;;;39.93;30.47;;;;;;;;;;5086908;28;20268;-72
2021/10/10 07:34:47;;;;;;;37.07;29.53;;;;;;;;;;5085054;28;21944;-72
2021/10/10 07:37:13;;;;;;;38.83;28.90;;;;;;;;;;5083534;28;20211;-72
2021/10/10 07:39:38;;;;;;;34.63;27.37;;;;;;;;;;5083393;28;20665;-72
2021/10/10 07:42:03;;;;;;;36.23;27.17;;;;;;;;;;5089497;28;20659;-72
2021/10/10 07:44:30;;;;;;;34.20;25.83;;;;;;;;;;5089374;28;20176;-72
2021/10/10 07:47:47;;;;;;;31.90;25.87;;;;;;;;;;5088240;28;20220;-72
2021/10/10 07:49:43;;;;;;;32.93;24.80;;;;;;;;;;5076152;22;20783;-70
2021/10/10 07:52:08;;;;;;;28.57;23.70;;;;;;;;;;5050446;28;20189;-71
2021/10/10 07:54:33;;;;;;;29.00;22.37;;;;;;;;;;5050901;28;20518;-70
2021/10/10 07:56:58;;;;;;;27.33;22.30;;;;;;;;;;5041652;28;20201;-70
2021/10/10 07:59:24;;;;;;;26.70;21.33;;;;;;;;;;5059095;28;20644;-70
2021/10/10 08:01:49;;;;;;;26.75;22.25;;;;;;;;;;5060697;28;20165;-70
2021/10/10 08:04:14;;;;;;;27.30;22.63;;;;;;;;;;5070280;28;20180;-70
2021/10/10 08:06:39;;;;;;;26.80;22.40;;;;;;;;;;5062449;28;20558;-71
2021/10/10 08:09:04;;;;;;;22.05;19.35;;;;;;;;;;5068682;28;20193;-70
2021/10/10 08:11:29;;;;;;;25.38;20.98;;;;;;;;;;5068690;28;20668;-70
2021/10/10 08:13:55;;;;;;;25.10;21.55;;;;;;;;;;5056218;28;20212;-69
2021/10/10 08:16:20;;;;;;;25.20;22.08;;;;;;;;;;5068665;28;20232;-71
2021/10/10 08:18:45;;;;;;;26.40;22.08;;;;;;;;;;5060977;28;20207;-70
2021/10/10 08:21:10;;;;;;;26.70;22.33;;;;;;;;;;5061596;28;20181;-70
2021/10/10 08:23:35;;;;;;;24.05;21.52;;;;;;;;;;5060308;28;20186;-70
2021/10/10 08:26:01;;;;;;;24.58;21.27;;;;;;;;;;5067401;28;20173;-69
2021/10/10 08:28:26;;;;;;;23.90;21.00;;;;;;;;;;5065807;28;20205;-72
2021/10/10 08:30:51;;;;;;;28.65;24.05;;;;;;;;;;5067185;28;20181;-69
2021/10/10 08:33:17;;;;;;;27.13;23.10;;;;;;;;;;5056149;28;20203;-72
2021/10/10 08:35:42;;;;;;;26.70;22.73;;;;;;;;;;5067648;28;20173;-70
2021/10/10 08:38:07;;;;;;;26.25;22.50;;;;;;;;;;5065539;28;20441;-70
2021/10/10 08:40:33;;;;;;;27.35;23.33;;;;;;;;;;5063135;28;20184;-70
2021/10/10 08:42:59;;;;;;;33.10;24.98;;;;;;;;;;5050197;28;20176;-70
2021/10/10 08:45:29;;;;;;;28.10;23.35;;;;;;;;;;5059187;28;20219;-69
2021/10/10 08:47:55;;;;;;;28.67;23.23;;;;;;;;;;5045925;28;20640;-70
2021/10/10 08:50:21;;;;;;;26.27;22.67;;;;;;;;;;5064174;28;20295;-70
2021/10/10 08:52:47;;;;;;;25.85;21.63;;;;;;;;;;5065987;28;20213;-71
2021/10/10 08:55:13;;;;;;;26.25;22.88;;;;;;;;;;5061467;28;20197;-71
2021/10/10 08:57:39;;;;;;;24.77;21.58;;;;;;;;;;5069488;28;20208;-70
2021/10/10 09:00:07;;;;;;;27.50;20.30;;;;;;;;;;5066307;28;20246;-70
2021/10/10 09:02:33;;;;;;;25.48;19.15;;;;;;;;;;5055013;28;20226;-70
2021/10/10 09:04:58;;;;;;;25.17;20.98;;;;;;;;;;5067720;28;20177;-70
2021/10/10 09:07:23;;;;;;;24.55;21.27;;;;;;;;;;5063771;28;20634;-71
2021/10/10 09:09:49;;;;;;;26.52;21.83;;;;;;;;;;5077389;28;20197;-71
2021/10/10 09:12:14;;;;;;;25.07;20.33;;;;;;;;;;5076663;28;20181;-70
2021/10/10 09:14:45;;;;;;;26.15;21.90;;;;;;;;;;5078841;28;20413;-71
2021/10/10 09:17:16;;;;;;;26.67;22.70;;;;;;;;;;5061736;28;20256;-71
2021/10/10 09:19:55;;;;;;;26.80;22.33;;;;;;;;;;5071867;28;20249;-70
2021/10/10 09:22:21;;;;;;;29.30;23.42;;;;;;;;;;5071304;28;20177;-71
2021/10/10 09:24:47;;;;;;;27.05;23.65;;;;;;;;;;5072536;28;20185;-71
2021/10/10 09:27:13;;;;;;;27.25;22.17;;;;;;;;;;5068752;28;20177;-70
2021/10/10 09:29:44;;;;;;;25.10;22.33;;;;;;;;;;5074224;28;20223;-72
2021/10/10 09:32:14;;;;;;;25.25;21.92;;;;;;;;;;5071401;28;20173;-71
2021/10/10 09:34:39;;;;;;;28.65;22.80;;;;;;;;;;5069204;28;20176;-71
2021/10/10 09:37:11;;;;;;;29.67;22.63;;;;;;;;;;5071822;28;20211;-72
2021/10/10 09:39:39;;;;;;;29.30;23.73;;;;;;;;;;5073911;28;20644;-70
2021/10/10 09:42:04;;;;;;;26.17;22.50;;;;;;;;;;5069956;28;20714;-70
2021/10/10 09:44:41;;;;;;;31.05;23.08;;;;;;;;;;5068668;28;20182;-70
2021/10/10 09:47:07;;;;;;;27.15;22.70;;;;;;;;;;5063931;28;20185;-70
2021/10/10 09:49:33;;;;;;;28.50;22.73;;;;;;;;;;5049162;28;20205;-71
2021/10/10 09:52:07;;;;;;;28.80;22.02;;;;;;;;;;5072817;28;20307;-70
2021/10/10 09:54:46;;;;;;;24.85;21.02;;;;;;;;;;5070764;28;20172;-70
2021/10/10 09:57:12;;;;;;;26.90;23.20;;;;;;;;;;5048467;28;20196;-70
2021/10/10 09:59:37;;;;;;;25.48;21.77;;;;;;;;;;5067382;28;20615;-73
2021/10/10 10:02:02;;;;;;;27.00;22.73;;;;;;;;;;5070683;28;20202;-70
2021/10/10 10:04:39;;;;;;;30.52;22.35;;;;;;;;;;5068702;28;20181;-70
2021/10/10 10:07:05;;;;;;;29.45;21.50;;;;;;;;;;5058789;28;20199;-70
2021/10/10 10:09:31;;;;;;;28.23;22.75;;;;;;;;;;5073580;28;20193;-69
2021/10/10 10:11:57;;;;;;;23.60;20.80;;;;;;;;;;5054119;28;20184;-70
2021/10/10 10:14:24;;;;;;;30.38;23.80;;;;;;;;;;5057448;28;20169;-69
2021/10/10 10:16:49;;;;;;;29.63;23.67;;;;;;;;;;5070280;28;20212;-69
2021/10/10 10:19:22;;;;;;;28.35;23.50;;;;;;;;;;5063949;28;20202;-71
2021/10/10 10:21:48;;;;;;;28.85;23.63;;;;;;;;;;5067060;28;20204;-69
2021/10/10 10:24:13;;;;;;;25.92;22.20;;;;;;;;;;5073052;28;20635;-70
2021/10/10 10:26:39;;;;;;;30.67;25.02;;;;;;;;;;5070114;28;20189;-70
2021/10/10 10:29:05;;;;;;;25.38;22.23;;;;;;;;;;5049430;28;20615;-70
2021/10/10 10:31:31;;;;;;;29.92;24.83;;;;;;;;;;5067983;28;20169;-69
2021/10/10 10:34:35;;;;;;;35.88;26.92;;;;;;;;;;5064920;28;20178;-70
2021/10/10 10:37:07;;;;;;;35.60;26.80;;;;;;;;;;4980652;28;20251;-70
2021/10/10 10:39:36;;;;;;;36.50;28.02;;;;;;;;;;4987952;28;20227;-69
2021/10/10 10:42:03;;;;;;;32.58;26.95;;;;;;;;;;5020851;28;20545;-70
2021/10/10 10:44:32;;;;;;;33.70;26.83;;;;;;;;;;5072897;28;20197;-70
2021/10/10 10:47:01;;;;;;;29.48;25.88;;;;;;;;;;5060207;28;20182;-70
2021/10/10 10:49:43;;;;;;;33.05;26.27;;;;;;;;;;5059900;28;20213;-69
2021/10/10 10:52:27;;;;;;;32.42;26.30;;;;;;;;;;5061535;28;20690;-71
2021/10/10 10:54:53;;;;;;;33.63;28.02;;;;;;;;;;5057693;28;20669;-71
2021/10/10 10:57:26;;;;;;;34.03;28.02;;;;;;;;;;5057720;28;20289;-69
2021/10/10 11:00:21;;;;;;;34.22;28.52;;;;;;;;;;5057951;28;20224;-70
2021/10/10 11:02:52;;;;;;;35.00;28.30;;;;;;;;;;5047991;28;20197;-70
2021/10/10 11:05:28;;;;;;;34.63;27.40;;;;;;;;;;5059751;28;20207;-70
2021/10/10 11:07:53;;;;;;;35.65;30.20;;;;;;;;;;5062215;28;20181;-70
2021/10/10 11:10:18;;;;;;;33.05;27.10;;;;;;;;;;5065206;28;20259;-70
2021/10/10 11:12:44;;;;;;;39.43;30.03;;;;;;;;;;5067123;28;20184;-70
2021/10/10 11:15:10;;;;;;;36.73;30.70;;;;;;;;;;5067004;28;20947;-70
2021/10/10 11:17:37;;;;;;;36.28;30.15;;;;;;;;;;5066728;28;20445;-70
2021/10/10 11:20:03;;;;;;;40.20;31.95;;;;;;;;;;5065961;28;20189;-70
2021/10/10 11:22:28;;;;;;;40.05;31.58;;;;;;;;;;5070454;28;20260;-70
2021/10/10 11:24:54;;;;;;;34.95;27.52;;;;;;;;;;5069560;28;20653;-69
2021/10/10 11:27:21;;;;;;;33.20;27.02;;;;;;;;;;5054905;28;20184;-70
2021/10/10 11:29:50;;;;;;;33.00;26.90;;;;;;;;;;5048311;28;20741;-71
2021/10/10 11:32:15;;;;;;;34.97;28.27;;;;;;;;;;5068787;28;20181;-70
2021/10/10 11:34:40;;;;;;;32.42;26.65;;;;;;;;;;5065105;28;20185;-70
2021/10/10 11:37:11;;;;;;;36.33;28.30;;;;;;;;;;5069851;28;20205;-70
2021/10/10 11:39:36;;;;;;;34.08;28.13;;;;;;;;;;5067669;28;20483;-71
2021/10/10 11:42:03;;;;;;;32.10;26.13;;;;;;;;;;5062936;28;20176;-70
2021/10/10 11:44:38;;;;;;;31.20;27.60;;;;;;;;;;5065395;28;20182;-70
2021/10/10 11:47:05;;;;;;;32.55;28.00;;;;;;;;;;5035193;28;20185;-71
2021/10/10 11:49:45;;;;;;;32.60;27.30;;;;;;;;;;5046986;28;20301;-70
2021/10/10 11:52:14;;;;;;;33.83;25.80;;;;;;;;;;5063308;28;20662;-71
2021/10/10 11:54:41;;;;;;;32.17;27.77;;;;;;;;;;5062984;28;20181;-70
2021/10/10 11:57:08;;;;;;;34.50;27.90;;;;;;;;;;5070710;28;20189;-70
2021/10/10 11:59:33;;;;;;;31.45;28.02;;;;;;;;;;5063153;28;20673;-69
2021/10/10 12:01:59;;;;;;;34.13;28.90;;;;;;;;;;5058750;28;20275;-70
2021/10/10 12:04:24;;;;;;;34.33;28.35;;;;;;;;;;5061066;28;20173;-69
2021/10/10 12:06:50;;;;;;;36.10;28.58;;;;;;;;;;5064398;28;20178;-70
2021/10/10 12:09:16;;;;;;;38.58;29.40;;;;;;;;;;5065849;28;20322;-69
2021/10/10 12:11:41;;;;;;;35.97;28.55;;;;;;;;;;5064248;28;20651;-70
2021/10/10 12:14:07;;;;;;;36.88;29.42;;;;;;;;;;5054966;28;20184;-70
2021/10/10 12:16:42;;;;;;;35.30;28.95;;;;;;;;;;5067650;28;20200;-70
2021/10/10 12:19:08;;;;;;;33.85;29.23;;;;;;;;;;5062786;28;20258;-69
2021/10/10 12:21:35;;;;;;;31.52;25.77;;;;;;;;;;5062577;28;20197;-69
2021/10/10 12:24:04;;;;;;;30.25;25.10;;;;;;;;;;5065807;28;20222;-70
2021/10/10 12:26:41;;;;;;;29.10;24.70;;;;;;;;;;5062295;28;20617;-70
2021/10/10 12:29:17;;;;;;;29.13;25.23;;;;;;;;;;5060285;28;20577;-69
2021/10/10 12:31:42;;;;;;;35.63;28.08;;;;;;;;;;5068784;28;20190;-68
2021/10/10 12:34:10;;;;;;;35.53;28.83;;;;;;;;;;5060484;28;20185;-69
2021/10/10 12:36:42;;;;;;;38.90;29.00;;;;;;;;;;5070200;28;20449;-72
2021/10/10 12:39:07;;;;;;;30.42;26.30;;;;;;;;;;5068725;28;20590;-71
2021/10/10 12:41:33;;;;;;;33.17;26.33;;;;;;;;;;5063544;28;20172;-72
2021/10/10 12:44:02;;;;;;;31.20;25.17;;;;;;;;;;5085499;28;20420;-72
2021/10/10 12:46:27;;;;;;;30.80;25.75;;;;;;;;;;5076036;28;20216;-73
2021/10/10 12:49:05;;;;;;;32.40;26.10;;;;;;;;;;5086574;28;20208;-73
2021/10/10 12:51:30;;;;;;;30.70;25.20;;;;;;;;;;5091094;28;20256;-73
2021/10/10 12:54:08;;;;;;;29.33;24.80;;;;;;;;;;5091162;28;20748;-73
2021/10/10 12:56:33;;;;;;;30.20;25.08;;;;;;;;;;5089441;28;20212;-74
2021/10/10 12:58:58;;;;;;;32.60;26.23;;;;;;;;;;5046365;28;20611;-75
2021/10/10 13:01:24;;;;;;;36.75;28.23;;;;;;;;;;5059791;28;20436;-74
2021/10/10 13:03:50;;;;;;;32.95;25.52;;;;;;;;;;5064873;28;20177;-73
2021/10/10 13:06:18;;;;;;;37.17;27.73;;;;;;;;;;5066802;28;20180;-71
2021/10/10 13:09:04;;;;;;;31.38;27.23;;;;;;;;;;5062518;28;20693;-72
2021/10/10 13:11:29;;;;;;;35.60;27.73;;;;;;;;;;5063341;28;20201;-72
2021/10/10 13:13:54;;;;;;;35.17;27.90;;;;;;;;;;5062455;28;20567;-72
2021/10/10 13:16:20;;;;;;;36.17;27.35;;;;;;;;;;5066341;28;20192;-74
2021/10/10 13:18:45;;;;;;;29.40;24.65;;;;;;;;;;5066647;28;20623;-72
2021/10/10 13:21:10;;;;;;;31.88;24.02;;;;;;;;;;5055531;28;20543;-72
2021/10/10 13:23:36;;;;;;;31.48;24.40;;;;;;;;;;5064047;28;20666;-72
2021/10/10 13:26:02;;;;;;;24.75;21.02;;;;;;;;;;5066322;28;20215;-72
2021/10/10 13:28:27;;;;;;;27.52;22.63;;;;;;;;;;5049033;28;20300;-72
2021/10/10 13:30:58;;;;;;;27.85;22.50;;;;;;;;;;5067004;28;20199;-72
2021/10/10 13:33:24;;;;;;;26.33;20.77;;;;;;;;;;5060238;28;20169;-72
2021/10/10 13:35:49;;;;;;;24.52;20.40;;;;;;;;;;5069831;28;20196;-72
2021/10/10 13:38:14;;;;;;;28.58;22.70;;;;;;;;;;5073859;28;20264;-72
2021/10/10 13:40:39;;;;;;;29.23;23.63;;;;;;;;;;5059554;28;20316;-72
2021/10/10 13:43:05;;;;;;;24.30;20.38;;;;;;;;;;5065619;28;20184;-72
2021/10/10 13:45:30;;;;;;;25.83;21.50;;;;;;;;;;5066790;28;20230;-72
2021/10/10 13:47:55;;;;;;;27.48;22.13;;;;;;;;;;5065996;28;20172;-73
2021/10/10 13:50:20;;;;;;;25.50;20.48;;;;;;;;;;5063614;23;20283;-73
2021/10/10 13:52:45;;;;;;;23.75;20.55;;;;;;;;;;5067447;28;20176;-74
2021/10/10 13:55:12;;;;;;;29.00;22.50;;;;;;;;;;5050026;28;20188;-74
2021/10/10 13:57:37;;;;;;;30.80;22.48;;;;;;;;;;5063372;28;20217;-73
2021/10/10 14:00:07;;;;;;;26.60;20.67;;;;;;;;;;5060096;28;20665;-73
2021/10/10 14:02:32;;;;;;;27.00;20.33;;;;;;;;;;5067751;28;20181;-70
2021/10/10 14:04:57;;;;;;;29.23;20.60;;;;;;;;;;5065218;28;20188;-72
2021/10/10 14:07:22;;;;;;;22.77;18.70;;;;;;;;;;5066219;28;20223;-73
2021/10/10 14:09:47;;;;;;;26.73;19.43;;;;;;;;;;5066406;28;20311;-75
2021/10/10 14:12:13;;;;;;;26.17;21.87;;;;;;;;;;5066901;28;20743;-77
2021/10/10 14:14:38;;;;;;;21.27;18.90;;;;;;;;;;5071762;28;20459;-75
2021/10/10 14:17:04;;;;;;;21.23;17.40;;;;;;;;;;5056384;28;20636;-77
2021/10/10 14:19:29;;;;;;;21.50;17.60;;;;;;;;;;5070208;28;20441;-76